Grays River, Washington
Current Conditions -  °F | °C
As of 8:11 PM on Wednesday 22 Oct 2014 (Local Time) from KAST Reporting Station
Light Rain Light Rain  
Wind Chill: 56°   Ceiling: 5000
Heat Index: 56°   Visibility: 6mi
Dew Point: 52°   Wind: 14mph
Humidity: 87%   Direction: 200°SSW
Pressure: 29.64"   Gusts: 35mph
Location:  46.36°N, 123.61°W
Report Text: KAST 230311Z AUTO 20012G30KT 6SM -RA BR FEW014 SCT023 OVC050 13/11 A2964 RMK AO2 PK WND 23030/0302 WSHFT 0257 CIG 043 RWY 08 P0016 T01330111
Loading
Personal Weather Stations






























Interactive Weather Map
Tropical Storm Tracking
New forecast layout! Learn more

10-Day Weather Forecast

Advertisements
Track Severe Weather on mobile